Terminal Aerodrome Forecast
Issued by NWS Flagstaff, AZ

Home | Current Version | Previous Version | Text Only | Print | Product List | Glossary On
Versions: 1 2 3 4 5 6 7 8 9 10 11 12 13 14 15 16 17
839
FTUS45 KFGZ 250541
TAFFLG
TAF
KFLG 250541Z 2506/2606 VRB04KT 6SM FU SCT140
     FM251800 22011G17KT P6SM BKN100 PROB30 2519/2601 5SM -TSRA
      BKN070CB
     FM260300 VRB04KT P6SM FEW120=

USA.gov is the U.S. government's official web portal to all federal, state and local government web resources and services.